Time;durP1;ratioP1;P1;durP2;ratioP2;P2;SDS_P1;SDS_P2;PMS_P1;PMS_P2;Temp;Humidity;BMP_temperature;BMP_pressure;BME280_temperature;BME280_humidity;BME280_pressure;Samples;Min_cycle;Max_cycle;Signal;HPM_P1;HPM_P2
2023/12/18 00:01:25;;;;;;;14.40;7.17;;;8.60;99.90;;;;;;5008795;28;20185;-53
2023/12/18 00:03:51;;;;;;;17.43;6.90;;;8.50;99.90;;;;;;5001958;28;20208;-50
2023/12/18 00:06:18;;;;;;;14.07;6.70;;;8.50;99.90;;;;;;5006078;28;20189;-53
2023/12/18 00:08:45;;;;;;;18.90;7.37;;;8.50;99.90;;;;;;5005159;28;20694;-52
2023/12/18 00:11:13;;;;;;;18.73;8.63;;;8.50;99.90;;;;;;5002885;28;20196;-53
2023/12/18 00:13:40;;;;;;;17.07;7.20;;;8.50;99.90;;;;;;4982339;28;20212;-51
2023/12/18 00:16:07;;;;;;;19.07;8.10;;;8.50;99.90;;;;;;5002585;28;20843;-51
2023/12/18 00:18:35;;;;;;;14.57;8.53;;;8.50;99.90;;;;;;5004935;28;20220;-52
2023/12/18 00:21:02;;;;;;;16.27;7.60;;;8.50;99.90;;;;;;5004690;28;20232;-50
2023/12/18 00:23:30;;;;;;;12.83;6.60;;;8.50;99.90;;;;;;5013117;28;20651;-53
2023/12/18 00:25:56;;;;;;;18.00;7.90;;;8.40;99.90;;;;;;5005338;28;20269;-49
2023/12/18 00:28:24;;;;;;;14.60;7.83;;;8.40;99.90;;;;;;4982470;28;20239;-51
2023/12/18 00:30:51;;;;;;;16.87;7.43;;;8.40;99.90;;;;;;5010947;28;20350;-53
2023/12/18 00:33:18;;;;;;;15.50;7.73;;;8.40;99.90;;;;;;5003565;28;20965;-49
2023/12/18 00:35:46;;;;;;;17.03;8.33;;;8.40;99.90;;;;;;5014873;28;20774;-52
2023/12/18 00:38:13;;;;;;;12.00;5.40;;;8.40;99.90;;;;;;5008356;28;20220;-50
2023/12/18 00:40:40;;;;;;;18.73;8.47;;;8.30;99.90;;;;;;5006350;28;20205;-53
2023/12/18 00:43:07;;;;;;;19.00;8.33;;;8.30;99.90;;;;;;4982881;28;20225;-53
2023/12/18 00:45:34;;;;;;;22.10;8.57;;;8.30;99.90;;;;;;5013019;28;20651;-49
2023/12/18 00:48:00;;;;;;;17.10;8.90;;;8.30;99.90;;;;;;5010653;28;20748;-50
2023/12/18 00:50:27;;;;;;;17.37;8.33;;;8.30;99.90;;;;;;5015287;28;20197;-53
2023/12/18 00:52:55;;;;;;;17.70;8.70;;;8.20;99.90;;;;;;5016585;28;20245;-50
2023/12/18 00:55:22;;;;;;;17.60;8.37;;;8.20;99.90;;;;;;5020927;28;20188;-53
2023/12/18 00:57:51;;;;;;;20.23;8.77;;;8.20;99.90;;;;;;5002725;28;20200;-50
2023/12/18 01:00:19;;;;;;;13.73;8.67;;;8.20;99.90;;;;;;4983197;28;20211;-54
2023/12/18 01:02:47;;;;;;;18.37;9.27;;;8.20;99.90;;;;;;5010021;28;20278;-51
2023/12/18 01:05:14;;;;;;;22.80;9.73;;;8.10;99.90;;;;;;5005182;28;20309;-50
2023/12/18 01:07:42;;;;;;;16.67;9.67;;;8.10;99.90;;;;;;5015102;28;20224;-48
2023/12/18 01:10:11;;;;;;;15.57;8.67;;;8.10;99.90;;;;;;5014649;28;20223;-54
2023/12/18 01:12:37;;;;;;;15.90;8.63;;;8.10;99.90;;;;;;5008072;28;20236;-52
2023/12/18 01:15:05;;;;;;;18.77;8.80;;;8.10;99.90;;;;;;4985203;28;20658;-53
2023/12/18 01:17:32;;;;;;;17.27;8.07;;;8.10;99.90;;;;;;5011259;28;20677;-53
2023/12/18 01:19:59;;;;;;;21.70;9.30;;;8.10;99.90;;;;;;5003502;28;20563;-52
2023/12/18 01:22:25;;;;;;;21.87;9.83;;;8.10;99.90;;;;;;5011859;28;20200;-51
2023/12/18 01:24:52;;;;;;;18.73;8.87;;;8.10;99.90;;;;;;5010047;28;20192;-50
2023/12/18 01:27:20;;;;;;;21.53;10.20;;;8.00;99.90;;;;;;5010546;28;20260;-53
2023/12/18 01:29:47;;;;;;;20.43;9.87;;;8.10;99.90;;;;;;4981959;28;20314;-53
2023/12/18 01:32:14;;;;;;;19.63;9.33;;;8.10;99.90;;;;;;5009228;28;20242;-53
2023/12/18 01:34:41;;;;;;;20.80;9.73;;;8.10;99.90;;;;;;5015388;28;20670;-54
2023/12/18 01:37:07;;;;;;;20.07;9.90;;;8.00;99.90;;;;;;4996879;28;20212;-53
2023/12/18 01:39:36;;;;;;;22.83;9.63;;;8.00;99.90;;;;;;5007261;28;20235;-52
2023/12/18 01:42:03;;;;;;;15.00;8.37;;;8.00;99.90;;;;;;5008639;28;20321;-55
2023/12/18 01:44:35;;;;;;;19.83;9.37;;;8.00;99.90;;;;;;5008561;28;20311;-50
2023/12/18 01:47:02;;;;;;;18.30;10.47;;;8.00;99.90;;;;;;4981519;28;20274;-54
2023/12/18 01:49:29;;;;;;;22.67;9.77;;;8.00;99.90;;;;;;5010352;28;20220;-49
2023/12/18 01:51:56;;;;;;;17.07;9.93;;;8.00;99.90;;;;;;5007798;28;20764;-53
2023/12/18 01:54:23;;;;;;;15.90;9.90;;;8.00;99.90;;;;;;5008635;28;20289;-50
2023/12/18 01:56:51;;;;;;;21.30;10.63;;;8.00;99.90;;;;;;5009819;28;20193;-54
2023/12/18 01:59:19;;;;;;;23.60;9.70;;;8.00;99.90;;;;;;4993572;28;20235;-52
2023/12/18 02:01:48;;;;;;;20.70;9.00;;;8.00;99.90;;;;;;4979034;28;20235;-52
2023/12/18 02:04:14;;;;;;;20.37;10.83;;;8.00;99.90;;;;;;5008879;28;20200;-51
2023/12/18 02:06:42;;;;;;;24.23;10.30;;;8.00;99.90;;;;;;5009790;28;20196;-49
2023/12/18 02:09:09;;;;;;;17.77;9.67;;;8.00;99.90;;;;;;5008675;28;20216;-47
2023/12/18 02:11:37;;;;;;;21.73;10.33;;;8.00;99.90;;;;;;5009808;28;20200;-53
2023/12/18 02:14:05;;;;;;;17.27;9.73;;;8.00;99.90;;;;;;4998249;28;20251;-55
2023/12/18 02:16:32;;;;;;;18.67;9.90;;;8.00;99.90;;;;;;4979523;28;20211;-49
2023/12/18 02:19:00;;;;;;;20.40;9.33;;;8.00;99.90;;;;;;5008232;28;20213;-53
2023/12/18 02:21:27;;;;;;;21.53;9.90;;;8.00;99.90;;;;;;5003442;28;20204;-49
2023/12/18 02:23:55;;;;;;;19.17;10.37;;;8.00;99.90;;;;;;5011376;28;20196;-54
2023/12/18 02:26:22;;;;;;;17.17;9.47;;;8.00;99.90;;;;;;5006682;28;20826;-54
2023/12/18 02:28:49;;;;;;;19.63;9.20;;;8.00;99.90;;;;;;5010273;28;20262;-53
2023/12/18 02:31:18;;;;;;;23.20;10.10;;;7.90;99.90;;;;;;5001414;28;20263;-52
2023/12/18 02:33:48;;;;;;;21.23;10.40;;;7.90;99.90;;;;;;4985022;28;20224;-47
2023/12/18 02:36:15;;;;;;;16.27;9.90;;;7.90;99.90;;;;;;5001413;28;20248;-49
2023/12/18 02:38:41;;;;;;;23.80;10.23;;;7.90;99.90;;;;;;5013358;28;20296;-48
2023/12/18 02:41:10;;;;;;;21.07;9.90;;;7.90;99.90;;;;;;5006241;28;20259;-47
2023/12/18 02:43:36;;;;;;;20.20;10.23;;;7.90;99.90;;;;;;5009602;28;20200;-49
2023/12/18 02:46:04;;;;;;;21.63;10.00;;;7.90;99.90;;;;;;4998873;28;20231;-54
2023/12/18 02:48:30;;;;;;;23.47;11.37;;;7.90;99.90;;;;;;4987888;28;20694;-49
2023/12/18 02:50:57;;;;;;;23.00;11.20;;;7.80;99.90;;;;;;5009269;28;20200;-54
2023/12/18 02:53:24;;;;;;;20.87;11.70;;;7.80;99.90;;;;;;4997237;28;20233;-48
2023/12/18 02:55:51;;;;;;;24.13;11.47;;;7.80;99.90;;;;;;5011006;28;20220;-54
2023/12/18 02:58:21;;;;;;;19.90;10.77;;;7.80;99.90;;;;;;5003286;28;20220;-48
2023/12/18 03:00:48;;;;;;;23.57;11.20;;;7.80;99.90;;;;;;5008865;28;20240;-54
2023/12/18 03:03:15;;;;;;;27.47;12.33;;;7.80;99.90;;;;;;4996432;28;20950;-53
2023/12/18 03:05:42;;;;;;;24.27;11.63;;;7.80;99.90;;;;;;4985264;28;20200;-47
2023/12/18 03:08:09;;;;;;;24.20;12.10;;;7.80;99.90;;;;;;5004307;28;20908;-53
2023/12/18 03:10:36;;;;;;;25.30;12.27;;;7.80;99.90;;;;;;5007230;28;20200;-52
2023/12/18 03:13:02;;;;;;;19.53;10.87;;;7.80;99.90;;;;;;5008239;28;20220;-53
2023/12/18 03:15:31;;;;;;;23.07;12.23;;;7.80;99.90;;;;;;5012023;28;20201;-50
2023/12/18 03:17:57;;;;;;;23.27;12.13;;;7.80;99.90;;;;;;5001228;28;20619;-55
2023/12/18 03:20:24;;;;;;;17.43;10.83;;;7.80;99.90;;;;;;4982415;28;20211;-49
2023/12/18 03:22:51;;;;;;;22.87;11.47;;;7.80;99.90;;;;;;5010121;28;20246;-55
2023/12/18 03:25:18;;;;;;;21.20;11.10;;;7.80;99.90;;;;;;4991482;28;20270;-49
2023/12/18 03:27:45;;;;;;;25.20;11.40;;;7.80;99.90;;;;;;5009536;28;20608;-52
2023/12/18 03:30:12;;;;;;;23.83;10.67;;;7.90;99.90;;;;;;4999087;28;20914;-50
2023/12/18 03:32:40;;;;;;;20.43;11.97;;;7.90;99.90;;;;;;4998217;28;20192;-48
2023/12/18 03:35:08;;;;;;;20.77;10.87;;;7.90;99.90;;;;;;5005857;28;20278;-48
2023/12/18 03:37:35;;;;;;;18.60;11.07;;;7.90;99.90;;;;;;4978229;28;20279;-55
2023/12/18 03:40:01;;;;;;;22.47;10.67;;;7.90;99.90;;;;;;5000158;28;20220;-55
2023/12/18 03:42:28;;;;;;;23.93;11.57;;;7.90;99.90;;;;;;5007216;28;20247;-49
2023/12/18 03:44:55;;;;;;;28.37;12.30;;;8.00;99.90;;;;;;5005442;28;20660;-53
2023/12/18 03:47:22;;;;;;;25.13;11.03;;;7.90;99.90;;;;;;5007475;28;20839;-51
2023/12/18 03:49:50;;;;;;;22.53;10.60;;;8.00;99.90;;;;;;5001305;28;20215;-54
2023/12/18 03:52:16;;;;;;;25.20;10.90;;;7.90;99.90;;;;;;4974500;28;20247;-48
2023/12/18 03:54:43;;;;;;;25.37;12.03;;;7.90;99.90;;;;;;5007146;28;20213;-51
2023/12/18 03:57:10;;;;;;;19.50;11.50;;;7.90;99.90;;;;;;4995797;28;20224;-51
2023/12/18 03:59:37;;;;;;;27.23;11.47;;;7.80;99.90;;;;;;5005600;28;20635;-52
2023/12/18 04:02:04;;;;;;;25.10;12.20;;;7.80;99.90;;;;;;5004099;28;20208;-55
2023/12/18 04:04:31;;;;;;;25.77;12.97;;;7.80;99.90;;;;;;4998588;28;20201;-51
2023/12/18 04:06:59;;;;;;;24.60;13.47;;;7.80;99.90;;;;;;4983799;28;20223;-55
2023/12/18 04:09:26;;;;;;;23.77;12.67;;;7.80;99.90;;;;;;4998031;28;20247;-50
2023/12/18 04:11:53;;;;;;;24.33;13.23;;;7.80;99.90;;;;;;4997639;28;20209;-54
2023/12/18 04:14:19;;;;;;;26.00;13.47;;;7.80;99.90;;;;;;5003246;28;20240;-49
2023/12/18 04:16:46;;;;;;;30.60;13.90;;;7.70;99.90;;;;;;5007227;28;20209;-53
2023/12/18 04:19:13;;;;;;;27.03;13.30;;;7.70;99.90;;;;;;5004085;28;20235;-49
2023/12/18 04:21:40;;;;;;;18.67;11.97;;;7.70;99.90;;;;;;5011980;28;20784;-50
2023/12/18 04:24:08;;;;;;;20.53;12.60;;;7.70;99.90;;;;;;4981781;28;20200;-52
2023/12/18 04:26:35;;;;;;;23.77;12.40;;;7.70;99.90;;;;;;5004712;28;20204;-52
2023/12/18 04:29:02;;;;;;;28.23;15.43;;;7.80;99.90;;;;;;5008124;28;20224;-53
2023/12/18 04:31:29;;;;;;;27.20;13.70;;;7.80;99.90;;;;;;5010663;28;20258;-51
2023/12/18 04:33:56;;;;;;;22.60;13.60;;;7.80;99.90;;;;;;5014274;28;20224;-55
2023/12/18 04:36:22;;;;;;;24.80;14.00;;;7.80;99.90;;;;;;5004288;28;20281;-51
2023/12/18 04:38:49;;;;;;;28.10;14.30;;;7.80;99.90;;;;;;5006931;28;20215;-54
2023/12/18 04:41:21;;;;;;;21.47;12.10;;;7.80;99.90;;;;;;4984913;28;20291;-52
2023/12/18 04:43:48;;;;;;;27.17;13.53;;;7.80;99.90;;;;;;5011435;28;20724;-53
2023/12/18 04:46:15;;;;;;;29.83;12.93;;;7.80;99.90;;;;;;5011702;28;20204;-50
2023/12/18 04:48:42;;;;;;;29.33;13.93;;;7.80;99.90;;;;;;5002193;28;20265;-55
2023/12/18 04:51:09;;;;;;;23.37;14.17;;;7.80;99.90;;;;;;5008322;28;20849;-50
2023/12/18 04:53:37;;;;;;;20.60;13.23;;;7.80;99.90;;;;;;5003291;28;20208;-52
2023/12/18 04:56:05;;;;;;;21.53;13.43;;;7.80;99.90;;;;;;4981297;28;20271;-51
2023/12/18 04:58:34;;;;;;;20.83;13.70;;;7.80;99.90;;;;;;5001464;28;20294;-52
2023/12/18 05:01:01;;;;;;;29.73;15.50;;;7.80;99.90;;;;;;5008822;28;20196;-51
2023/12/18 05:03:28;;;;;;;23.63;14.20;;;7.80;99.90;;;;;;5010431;28;20201;-54
2023/12/18 05:05:55;;;;;;;28.60;15.00;;;7.80;99.90;;;;;;5009066;28;20235;-50
2023/12/18 05:08:22;;;;;;;30.43;16.47;;;7.80;99.90;;;;;;5006152;28;20273;-51
2023/12/18 05:10:49;;;;;;;24.63;14.57;;;7.80;99.90;;;;;;4977299;28;20244;-50
2023/12/18 05:13:15;;;;;;;31.13;15.87;;;7.80;99.90;;;;;;5002303;28;20223;-53
2023/12/18 05:15:44;;;;;;;30.43;17.30;;;7.70;99.90;;;;;;5007790;28;20551;-55
2023/12/18 05:18:10;;;;;;;31.50;17.63;;;7.70;99.90;;;;;;5009703;28;20741;-51
2023/12/18 05:20:37;;;;;;;25.37;17.23;;;7.70;99.90;;;;;;5006538;28;20189;-56
2023/12/18 05:23:04;;;;;;;28.37;15.43;;;7.70;99.90;;;;;;5010159;28;20204;-47
2023/12/18 05:25:31;;;;;;;35.97;19.00;;;7.70;99.90;;;;;;4983048;28;20205;-52
2023/12/18 05:27:58;;;;;;;31.10;18.40;;;7.70;99.90;;;;;;4998343;28;23183;-52
2023/12/18 05:30:24;;;;;;;29.07;17.77;;;7.70;99.90;;;;;;5007845;28;20196;-54
2023/12/18 05:32:53;;;;;;;32.93;18.07;;;7.60;99.90;;;;;;4998843;28;20408;-53
2023/12/18 05:35:19;;;;;;;32.67;18.40;;;7.60;99.90;;;;;;5017046;28;20744;-52
2023/12/18 05:37:46;;;;;;;29.93;19.17;;;7.60;99.90;;;;;;5003668;28;20266;-50
2023/12/18 05:40:13;;;;;;;26.00;16.73;;;7.60;99.90;;;;;;4996460;28;20980;-56
2023/12/18 05:42:40;;;;;;;29.47;18.10;;;7.60;99.90;;;;;;4991821;28;20291;-48
2023/12/18 05:45:08;;;;;;;32.73;18.07;;;7.60;99.90;;;;;;5004960;28;20260;-53
2023/12/18 05:47:35;;;;;;;30.47;19.00;;;7.60;99.90;;;;;;5010239;28;20211;-51
2023/12/18 05:50:03;;;;;;;35.53;20.03;;;7.60;99.90;;;;;;5014444;28;20216;-50
2023/12/18 05:52:30;;;;;;;30.30;19.17;;;7.60;99.90;;;;;;4997543;28;23447;-53
2023/12/18 05:54:57;;;;;;;25.80;17.73;;;7.60;99.90;;;;;;5005339;28;20240;-52
2023/12/18 05:57:23;;;;;;;28.60;17.23;;;7.60;99.90;;;;;;4984869;28;20204;-48
2023/12/18 05:59:50;;;;;;;32.90;18.70;;;7.60;99.90;;;;;;5008329;28;20227;-51
2023/12/18 06:02:17;;;;;;;33.50;19.77;;;7.60;99.90;;;;;;5008862;28;20184;-52
2023/12/18 06:04:44;;;;;;;33.13;20.33;;;7.60;99.90;;;;;;5012997;28;20181;-53
2023/12/18 06:07:13;;;;;;;30.53;19.00;;;7.60;99.90;;;;;;4998899;28;20224;-55
2023/12/18 06:09:40;;;;;;;34.30;17.93;;;7.60;99.90;;;;;;5007364;28;20224;-51
2023/12/18 06:12:07;;;;;;;34.33;19.23;;;7.60;99.90;;;;;;4979604;28;20216;-55
2023/12/18 06:14:34;;;;;;;33.63;18.00;;;7.60;99.90;;;;;;5005325;28;20632;-53
2023/12/18 06:17:00;;;;;;;40.50;19.80;;;7.60;99.90;;;;;;5009885;28;20197;-56
2023/12/18 06:19:27;;;;;;;33.07;17.70;;;7.60;99.90;;;;;;5009569;28;20212;-52
2023/12/18 06:21:55;;;;;;;30.47;17.90;;;7.70;99.90;;;;;;5013550;28;20234;-55
2023/12/18 06:24:23;;;;;;;33.90;19.30;;;7.70;99.90;;;;;;5006716;28;20289;-52
2023/12/18 06:26:50;;;;;;;34.23;19.03;;;7.70;99.90;;;;;;5010913;28;20254;-53
2023/12/18 06:29:16;;;;;;;28.07;16.33;;;7.70;99.90;;;;;;4967340;28;20317;-48
2023/12/18 06:31:43;;;;;;;31.17;19.07;;;7.70;99.90;;;;;;5014171;28;20558;-54
2023/12/18 06:34:11;;;;;;;36.23;20.90;;;7.70;99.90;;;;;;5005460;28;20208;-56
2023/12/18 06:36:38;;;;;;;34.53;19.60;;;7.70;99.90;;;;;;5011295;28;20207;-50
2023/12/18 06:39:05;;;;;;;29.00;19.53;;;7.80;99.90;;;;;;5005148;28;20242;-54
2023/12/18 06:41:33;;;;;;;30.67;19.67;;;7.80;99.90;;;;;;4999857;28;20220;-48
2023/12/18 06:44:00;;;;;;;31.73;19.00;;;7.80;99.90;;;;;;4975638;28;20290;-55
2023/12/18 06:46:26;;;;;;;33.23;19.77;;;7.80;99.90;;;;;;4995536;28;20200;-51
2023/12/18 06:48:53;;;;;;;34.13;19.50;;;7.80;99.90;;;;;;5006895;28;20270;-48
2023/12/18 06:51:20;;;;;;;39.07;20.23;;;7.80;99.90;;;;;;5004622;28;20921;-51
2023/12/18 06:53:47;;;;;;;37.70;20.17;;;7.80;99.90;;;;;;5010088;28;20624;-51
2023/12/18 06:56:14;;;;;;;34.60;19.57;;;7.80;99.90;;;;;;4993080;28;20224;-51
2023/12/18 06:58:42;;;;;;;34.07;19.47;;;7.80;99.90;;;;;;5016507;28;20220;-52
2023/12/18 07:01:09;;;;;;;33.73;20.50;;;7.80;99.90;;;;;;4965698;28;20288;-56
2023/12/18 07:03:36;;;;;;;29.80;20.07;;;7.90;99.90;;;;;;5013356;28;20188;-51
2023/12/18 07:06:03;;;;;;;34.50;19.43;;;7.80;99.90;;;;;;5008616;28;21615;-52
2023/12/18 07:08:30;;;;;;;37.87;21.93;;;7.90;99.90;;;;;;5006662;28;21106;-52
2023/12/18 07:10:57;;;;;;;38.13;21.33;;;7.90;99.90;;;;;;4990630;28;20723;-52
2023/12/18 07:13:24;;;;;;;32.83;20.93;;;7.90;99.90;;;;;;5007720;28;20277;-47
2023/12/18 07:15:52;;;;;;;32.67;19.70;;;7.90;99.90;;;;;;4959910;28;20276;-57
2023/12/18 07:18:19;;;;;;;33.03;19.40;;;7.90;99.90;;;;;;5007633;28;20223;-54
2023/12/18 07:20:46;;;;;;;31.83;17.27;;;7.90;99.90;;;;;;4993019;28;20211;-51
2023/12/18 07:23:13;;;;;;;35.97;20.60;;;7.90;99.90;;;;;;5008554;28;20264;-54
2023/12/18 07:25:43;;;;;;;37.47;20.87;;;7.90;99.90;;;;;;4994770;28;20718;-48
2023/12/18 07:28:16;;;;;;;33.10;20.13;;;7.90;99.90;;;;;;5001791;28;20191;-52
2023/12/18 07:30:44;;;;;;;45.20;22.13;;;7.90;99.90;;;;;;4993978;28;20295;-56
2023/12/18 07:33:21;;;;;;;33.33;22.57;;;7.90;99.90;;;;;;4984134;28;20196;-54
2023/12/18 07:35:48;;;;;;;40.30;21.97;;;7.90;99.90;;;;;;5000483;28;20297;-55
2023/12/18 07:38:15;;;;;;;35.70;20.07;;;7.90;99.90;;;;;;5002206;28;20222;-52
2023/12/18 07:40:42;;;;;;;37.40;20.23;;;7.90;99.90;;;;;;5011673;28;20207;-52
2023/12/18 07:46:02;;;;;;;38.70;22.60;;;7.90;99.90;;;;;;4995093;28;20201;-53
2023/12/18 07:49:15;;;;;;;40.47;22.80;;;7.90;99.90;;;;;;4971487;28;20259;-52
2023/12/18 07:51:51;;;;;;;44.53;23.13;;;7.90;99.90;;;;;;4998500;28;20212;-54
2023/12/18 07:54:31;;;;;;;40.83;20.90;;;7.90;99.90;;;;;;5006853;28;20196;-51
2023/12/18 07:57:02;;;;;;;38.70;22.47;;;7.90;99.90;;;;;;4997915;28;20224;-50
2023/12/18 07:59:31;;;;;;;38.80;21.30;;;7.90;99.90;;;;;;5009810;28;20231;-49
2023/12/18 08:02:05;;;;;;;43.70;22.87;;;7.90;99.90;;;;;;4994060;28;20215;-52
2023/12/18 08:04:38;;;;;;;33.67;21.10;;;7.90;99.90;;;;;;4964818;28;20211;-53
2023/12/18 08:07:20;;;;;;;46.37;22.50;;;7.90;99.90;;;;;;4999226;28;20203;-49
2023/12/18 08:09:55;;;;;;;42.70;23.90;;;7.90;99.90;;;;;;5011007;28;20311;-52
2023/12/18 08:12:38;;;;;;;43.97;23.87;;;7.90;99.90;;;;;;4997122;28;20212;-56
2023/12/18 08:15:14;;;;;;;44.53;24.57;;;7.90;99.90;;;;;;5007308;28;20219;-54
2023/12/18 08:17:45;;;;;;;49.40;24.23;;;7.80;99.90;;;;;;4973380;28;20234;-49
2023/12/18 08:20:31;;;;;;;44.63;23.07;;;7.90;99.90;;;;;;5005120;28;20223;-53
2023/12/18 08:23:10;;;;;;;51.93;24.60;;;7.90;99.90;;;;;;5006368;28;20280;-51
2023/12/18 08:25:58;;;;;;;49.47;23.97;;;7.90;99.90;;;;;;5008944;28;20275;-54
2023/12/18 08:28:46;;;;;;;45.63;24.97;;;7.80;99.90;;;;;;4999568;28;20717;-56
2023/12/18 08:31:18;;;;;;;40.40;22.23;;;7.90;99.90;;;;;;5011986;28;20245;-50
2023/12/18 08:33:52;;;;;;;50.80;23.97;;;7.80;99.90;;;;;;4978319;28;20208;-55
2023/12/18 08:36:29;;;;;;;48.83;24.57;;;7.80;99.90;;;;;;5004591;28;20358;-54
2023/12/18 08:39:22;;;;;;;54.43;25.17;;;7.80;99.90;;;;;;5002600;28;20235;-50
2023/12/18 08:41:52;;;;;;;53.93;26.07;;;7.80;99.90;;;;;;5007973;28;20853;-55
2023/12/18 08:44:28;;;;;;;45.37;24.03;;;7.80;99.90;;;;;;5002257;28;20208;-54
2023/12/18 08:47:07;;;;;;;49.70;24.70;;;7.80;99.90;;;;;;5007286;28;20191;-48
2023/12/18 08:50:26;;;;;;;44.67;24.50;;;7.80;99.90;;;;;;4974572;28;20209;-51
2023/12/18 08:52:53;;;;;;;57.70;26.30;;;7.80;99.90;;;;;;5003307;28;20333;-50
2023/12/18 08:55:22;;;;;;;47.50;25.47;;;7.80;99.90;;;;;;5001297;28;20220;-52
2023/12/18 08:57:49;;;;;;;54.70;24.53;;;7.90;99.90;;;;;;5006619;28;20203;-49
2023/12/18 09:00:16;;;;;;;45.33;25.70;;;7.90;99.90;;;;;;5002408;28;20225;-50
2023/12/18 09:02:43;;;;;;;47.07;24.17;;;7.80;99.90;;;;;;5000518;28;20300;-49
2023/12/18 09:05:11;;;;;;;51.73;24.80;;;7.80;99.90;;;;;;4988834;28;20196;-53
2023/12/18 09:07:38;;;;;;;49.97;24.27;;;7.80;99.90;;;;;;5000448;28;20200;-50
2023/12/18 09:10:05;;;;;;;53.87;25.97;;;7.80;99.90;;;;;;5006962;28;20220;-52
2023/12/18 09:12:34;;;;;;;53.47;26.23;;;7.80;99.90;;;;;;5007334;28;20209;-58
2023/12/18 09:15:12;;;;;;;51.90;25.53;;;7.80;99.90;;;;;;5005671;28;20216;-54
2023/12/18 09:17:39;;;;;;;47.87;26.17;;;7.80;99.90;;;;;;5000162;28;20196;-49
2023/12/18 09:20:08;;;;;;;52.37;26.57;;;7.80;99.90;;;;;;5013003;28;20690;-54
2023/12/18 09:22:35;;;;;;;48.70;26.93;;;7.80;99.90;;;;;;4976710;28;20211;-53
2023/12/18 09:25:03;;;;;;;55.30;25.67;;;7.80;99.90;;;;;;5009349;28;20193;-51
2023/12/18 09:27:31;;;;;;;54.10;26.77;;;7.80;99.90;;;;;;4999368;28;20202;-56
2023/12/18 09:30:00;;;;;;;48.70;25.73;;;7.80;99.90;;;;;;5001443;28;20307;-49
2023/12/18 09:32:27;;;;;;;58.20;27.30;;;7.80;99.90;;;;;;5007602;28;20207;-57
2023/12/18 09:34:54;;;;;;;46.73;24.60;;;7.80;99.90;;;;;;5001091;28;20565;-52
2023/12/18 09:37:20;;;;;;;51.37;26.90;;;7.80;99.90;;;;;;4985632;28;20220;-54
2023/12/18 09:43:15;;;;;;;50.43;27.73;;;7.80;99.90;;;;;;5005681;28;20212;-52
2023/12/18 09:46:22;;;;;;;52.97;25.63;;;7.80;99.90;;;;;;5005897;28;21021;-52
2023/12/18 09:48:56;;;;;;;53.27;27.30;;;7.90;99.90;;;;;;4999611;28;20228;-56
2023/12/18 09:51:28;;;;;;;49.97;26.03;;;7.90;99.90;;;;;;5015787;28;20204;-50
2023/12/18 09:53:56;;;;;;;50.60;27.30;;;7.90;99.90;;;;;;4972066;28;20228;-58
2023/12/18 09:56:55;;;;;;;55.83;27.70;;;7.90;99.90;;;;;;5003916;28;20228;-50
2023/12/18 09:59:38;;;;;;;53.37;26.40;;;7.90;99.90;;;;;;5001706;28;20307;-52
2023/12/18 10:02:13;;;;;;;46.10;26.27;;;7.90;99.90;;;;;;4993666;28;20208;-52
2023/12/18 10:05:01;;;;;;;;;;;;;;;;;;;;;
2023/12/18 10:07:34;;;;;;;41.83;24.37;;;7.90;99.90;;;;;;5005762;28;20200;-53
2023/12/18 10:10:15;;;;;;;46.97;25.00;;;7.90;99.90;;;;;;4972007;28;20232;-52
2023/12/18 10:13:18;;;;;;;41.87;24.73;;;7.90;99.90;;;;;;5004915;28;20283;-56
2023/12/18 10:15:48;;;;;;;45.93;23.47;;;8.00;99.90;;;;;;5010679;28;20212;-51
2023/12/18 10:18:28;;;;;;;50.80;24.50;;;8.00;99.90;;;;;;4990605;28;20315;-57
2023/12/18 10:21:14;;;;;;;45.87;24.57;;;8.00;99.90;;;;;;5012381;28;20207;-54
2023/12/18 10:23:48;;;;;;;43.50;23.07;;;8.00;99.90;;;;;;5015424;28;20216;-53
2023/12/18 10:26:15;;;;;;;43.93;23.53;;;8.00;99.90;;;;;;4992168;28;20185;-50
2023/12/18 10:28:46;;;;;;;41.23;21.17;;;8.00;99.90;;;;;;5002759;28;20621;-52
2023/12/18 10:31:13;;;;;;;46.43;24.37;;;8.00;99.90;;;;;;5006288;28;20188;-49
2023/12/18 10:33:43;;;;;;;45.07;23.00;;;8.00;99.90;;;;;;5001760;28;20205;-55
2023/12/18 10:36:17;;;;;;;48.53;23.37;;;8.10;99.90;;;;;;4999225;28;20212;-54
2023/12/18 10:38:49;;;;;;;44.30;24.00;;;8.10;99.90;;;;;;5013373;28;20266;-54
2023/12/18 10:41:21;;;;;;;50.43;24.73;;;8.10;99.90;;;;;;4977434;28;20208;-54
2023/12/18 10:43:53;;;;;;;52.93;23.97;;;8.10;99.90;;;;;;5003794;28;20544;-54
2023/12/18 10:46:29;;;;;;;45.70;23.00;;;8.10;99.90;;;;;;5011239;28;20197;-54
2023/12/18 10:49:00;;;;;;;34.03;21.73;;;8.10;99.90;;;;;;5002454;28;20232;-53
2023/12/18 10:51:36;;;;;;;49.30;23.90;;;8.10;99.90;;;;;;4999499;28;20201;-52
2023/12/18 10:54:06;;;;;;;42.53;22.93;;;8.10;99.90;;;;;;5016025;28;20615;-55
2023/12/18 10:56:37;;;;;;;44.33;22.70;;;8.10;99.90;;;;;;4977570;28;20741;-55
2023/12/18 10:59:08;;;;;;;40.07;22.90;;;8.10;99.90;;;;;;5000295;28;20252;-55
2023/12/18 11:01:47;;;;;;;45.30;23.00;;;8.10;99.90;;;;;;5007432;28;20194;-57
2023/12/18 11:04:18;;;;;;;43.07;21.27;;;8.10;99.90;;;;;;5000453;28;20235;-56
2023/12/18 11:06:50;;;;;;;44.50;21.53;;;8.10;99.90;;;;;;5003066;28;20204;-53
2023/12/18 11:09:21;;;;;;;51.27;22.90;;;8.10;99.90;;;;;;5003065;28;20205;-57
2023/12/18 11:11:49;;;;;;;38.80;21.57;;;8.10;99.90;;;;;;4978396;28;20695;-55
2023/12/18 11:14:29;;;;;;;43.60;22.70;;;8.10;99.90;;;;;;5004461;28;20196;-56
2023/12/18 11:17:16;;;;;;;39.90;23.57;;;8.10;99.90;;;;;;5003325;28;20303;-53
2023/12/18 11:19:55;;;;;;;39.20;23.67;;;8.10;99.90;;;;;;5004074;28;20223;-55
2023/12/18 11:22:43;;;;;;;41.07;23.40;;;8.10;99.90;;;;;;5008138;28;20310;-54
2023/12/18 11:25:11;;;;;;;43.40;24.47;;;8.10;99.90;;;;;;4997910;28;20208;-55
2023/12/18 11:27:53;;;;;;;41.90;22.47;;;8.10;99.90;;;;;;4975122;28;20207;-58
2023/12/18 11:30:30;;;;;;;42.03;22.57;;;8.10;99.90;;;;;;5007444;28;20276;-57
2023/12/18 11:33:04;;;;;;;45.60;23.67;;;8.10;99.90;;;;;;4998567;28;20278;-54
2023/12/18 11:35:34;;;;;;;46.53;24.53;;;8.10;99.90;;;;;;5001465;28;20295;-55
2023/12/18 11:38:08;;;;;;;39.57;22.27;;;8.20;99.90;;;;;;5004749;28;20790;-59
2023/12/18 11:40:46;;;;;;;47.50;23.80;;;8.20;99.90;;;;;;5005720;28;20666;-56
2023/12/18 11:43:32;;;;;;;48.73;24.57;;;8.10;99.90;;;;;;4986161;28;20219;-55
2023/12/18 11:46:02;;;;;;;45.50;22.60;;;8.10;99.90;;;;;;4997429;28;20215;-57
2023/12/18 11:48:29;;;;;;;53.13;25.03;;;8.10;99.90;;;;;;5008390;28;20215;-56
2023/12/18 11:50:59;;;;;;;47.20;25.37;;;8.10;99.90;;;;;;4992264;28;20196;-54
2023/12/18 11:53:34;;;;;;;40.30;23.83;;;8.20;99.90;;;;;;5000537;28;20200;-55
2023/12/18 11:56:08;;;;;;;46.57;24.27;;;8.20;99.90;;;;;;5006787;28;20307;-57
2023/12/18 11:58:36;;;;;;;49.10;23.63;;;8.20;99.90;;;;;;4981815;28;20303;-58
2023/12/18 12:01:03;;;;;;;49.70;24.20;;;8.10;99.90;;;;;;4995931;28;20219;-55
2023/12/18 12:03:32;;;;;;;45.87;25.00;;;8.10;99.90;;;;;;5002970;28;20196;-56
2023/12/18 12:06:07;;;;;;;49.40;25.73;;;8.10;99.90;;;;;;5001256;28;20196;-49
2023/12/18 12:08:34;;;;;;;44.90;24.03;;;8.10;99.90;;;;;;5000094;28;20231;-53
2023/12/18 12:11:05;;;;;;;46.43;23.03;;;8.10;99.90;;;;;;5004323;28;20212;-54
2023/12/18 12:13:32;;;;;;;40.17;23.37;;;8.10;99.90;;;;;;4973444;28;20678;-55
2023/12/18 12:16:03;;;;;;;35.87;23.53;;;8.10;99.90;;;;;;4992560;28;20212;-56
2023/12/18 12:18:31;;;;;;;44.23;21.37;;;8.10;99.90;;;;;;5006399;28;20226;-51
2023/12/18 12:21:00;;;;;;;43.47;21.80;;;8.10;99.90;;;;;;5001521;28;20200;-55
2023/12/18 12:23:28;;;;;;;43.60;24.03;;;8.10;99.90;;;;;;5000336;28;20200;-56
2023/12/18 12:25:57;;;;;;;40.93;23.43;;;8.10;99.90;;;;;;5007449;28;20200;-56
2023/12/18 12:28:24;;;;;;;43.17;21.70;;;8.10;99.90;;;;;;4974172;28;20212;-56
2023/12/18 12:30:51;;;;;;;44.90;24.43;;;8.10;99.90;;;;;;5008689;28;20224;-56
2023/12/18 12:33:18;;;;;;;43.80;23.27;;;8.10;99.90;;;;;;5006461;28;20342;-56
2023/12/18 12:35:46;;;;;;;41.27;22.67;;;8.10;99.90;;;;;;5012146;28;20542;-55
2023/12/18 12:38:16;;;;;;;44.90;24.57;;;8.10;99.90;;;;;;5001414;28;20266;-56
2023/12/18 12:40:44;;;;;;;45.13;20.77;;;8.10;99.90;;;;;;5008472;28;20192;-55
2023/12/18 12:43:14;;;;;;;45.07;23.07;;;8.10;99.90;;;;;;4996733;28;20416;-54
2023/12/18 12:45:42;;;;;;;41.30;23.33;;;8.10;99.90;;;;;;5004848;28;20852;-57
2023/12/18 12:48:11;;;;;;;50.47;24.63;;;8.10;99.90;;;;;;5004237;28;20385;-55
2023/12/18 12:50:38;;;;;;;48.43;24.37;;;8.10;99.90;;;;;;5010226;28;20660;-55
2023/12/18 12:53:09;;;;;;;45.67;23.70;;;8.10;99.90;;;;;;5001347;28;20278;-54
2023/12/18 12:55:37;;;;;;;50.03;25.20;;;8.10;99.90;;;;;;5010692;28;20714;-54
2023/12/18 12:58:05;;;;;;;44.33;23.40;;;8.20;99.90;;;;;;4979641;28;20298;-52
2023/12/18 13:00:32;;;;;;;41.30;23.70;;;8.20;99.90;;;;;;5005070;28;20200;-56